• Join FlightAware (Why Join?)
  • Login
  • US Flag 
03:56PM EDT


 

Airport Tracker/Info


-or-


 

Live Flight TrackerFlight Track Log ✈ N700QA ✈ 29-Mar-2014 ✈ KONT - KSAN

Flight Track Log - Related Links

Times and Time Zones

All times are in EDT time to prevent confusion due to time zone crossing. See the N700QA flight status page for this flight to view local times or setup timezone preferences in your user account.

Time Position Orientation Groundspeed Altitude Reporting Facility
EDT Latitude Longitude Course Direction KTS MPH feet Rate Location/Type
10:23AM 34.0333 -117.6333 140° Southeast 203 234 2,800  Level Southern California TRACON
10:24AM 33.9833 -117.5833 140° Southeast 229 264 4,300 1,680 Climbing Southern California TRACON
10:25AM 33.9167 -117.5333 148° Southeast 251 289 6,200 2,160 Climbing Southern California TRACON
10:26AM 33.8667 -117.4833 140° Southeast 262 302 8,700 2,040 Climbing Southern California TRACON
10:27AM 33.8189 -117.4461 147° Southeast 275 316 9,900 1,260 Climbing Los Angeles Center
10:28AM 33.7453 -117.3883 147° Southeast 309 356 11,000 540 Climbing Los Angeles Center
10:29AM 33.6669 -117.3200 144° Southeast 339 390 11,000  Level Los Angeles Center
10:30AM 33.5906 -117.2542 144° Southeast 340 391 11,000  Level Los Angeles Center
10:31AM 33.5144 -117.1897 145° Southeast 336 387 11,000  Level Los Angeles Center
10:32AM 33.4222 -117.1489 160° South 323 372 11,000 -480 Level Los Angeles Center
10:33AM 33.3292 -117.0947 154° Southeast 312 359 10,000 -960 Descending Los Angeles Center
10:34AM 33.2500 -117.0500 155° Southeast 300 345 9,000 -540 Descending Southern California TRACON
10:35AM 33.1833 -117.0000 148° Southeast 300 345 9,000  Level Southern California TRACON
10:36AM 33.1167 -116.9500 148° Southeast 283 326 9,000 -600 Level Southern California TRACON
10:37AM 33.0333 -116.9167 161° South 283 326 7,900 -1,380 Descending Southern California TRACON
10:38AM 32.9667 -116.9000 168° South 275 316 6,300 -960 Descending Southern California TRACON
10:39AM 32.9000 -116.8833 168° South 242 278 6,000 -540 Descending Southern California TRACON
10:40AM 32.8333 -116.8833 180° South 256 295 5,300 -540 Descending Southern California TRACON
10:41AM 32.7667 -116.9000 192° South 245 282 5,000 -360 Descending Southern California TRACON
10:42AM 32.7000 -116.9333 203° Southwest 235 270 4,600 -480 Descending Southern California TRACON
10:43AM 32.6667 -116.9667 220° Southwest 223 257 4,100 -900 Descending Southern California TRACON
10:44AM 32.7000 -117.0333 301° West 180 207 2,900 -1,140 Descending Southern California TRACON
10:45AM 32.7000 -117.0833 270° West 171 197 1,900 -960 Descending Southern California TRACON
10:46AM 32.7167 -117.1333 292° West 157 181 1,000 -720 Descending Southern California TRACON
10:48AM 32.7331 -117.1908 289° West 151 174 200 -600 Descending Los Angeles Center
10:50AM 32.7336 -117.1897 63° Northeast  Level Estimated